Time;durP1;ratioP1;P1;durP2;ratioP2;P2;SDS_P1;SDS_P2;PMS_P1;PMS_P2;Temp;Humidity;BMP_temperature;BMP_pressure;BME280_temperature;BME280_humidity;BME280_pressure;Samples;Min_cycle;Max_cycle;Signal;HPM_P1;HPM_P2
2021/12/12 00:00:13;;;;;;;;;;;22.30;51.80;;;;;;5076792;28;996;-32
2021/12/12 00:02:56;;;;;;;;;;;22.30;51.60;;;;;;5076325;28;1813;-32
2021/12/12 00:05:26;;;;;;;;;;;22.30;51.60;;;;;;5076922;28;1165;-32
2021/12/12 00:07:53;;;;;;;;;;;22.40;51.70;;;;;;5077510;27;988;-32
2021/12/12 00:10:22;;;;;;;;;;;22.30;51.80;;;;;;5077462;27;919;-32
2021/12/12 00:12:53;;;;;;;;;;;22.30;51.80;;;;;;5076703;27;1445;-32
2021/12/12 00:15:20;;;;;;;;;;;22.30;51.80;;;;;;5076697;28;1031;-33
2021/12/12 00:17:48;;;;;;;;;;;22.30;51.80;;;;;;5076719;28;1983;-31
2021/12/12 00:20:15;;;;;;;;;;;22.30;51.80;;;;;;5076334;28;976;-33
2021/12/12 00:22:44;;;;;;;;;;;22.30;51.80;;;;;;5076605;28;1114;-31
2021/12/12 00:25:10;;;;;;;;;;;22.30;51.90;;;;;;5076562;28;936;-34
2021/12/12 00:27:37;;;;;;;;;;;22.30;51.90;;;;;;5076018;28;896;-31
2021/12/12 00:30:05;;;;;;;;;;;22.30;52.00;;;;;;5076490;28;1036;-32
2021/12/12 00:32:34;;;;;;;;;;;22.30;52.00;;;;;;5076270;28;1059;-32
2021/12/12 00:35:04;;;;;;;;;;;22.20;51.90;;;;;;5076642;28;1193;-32
2021/12/12 00:37:31;;;;;;;;;;;22.20;51.90;;;;;;5076620;28;1901;-31
2021/12/12 00:40:04;;;;;;;;;;;22.30;52.00;;;;;;5076307;28;979;-31
2021/12/12 00:42:34;;;;;;;;;;;22.20;51.90;;;;;;5076669;28;876;-30
2021/12/12 00:45:04;;;;;;;;;;;22.20;51.90;;;;;;5076754;28;1003;-31
2021/12/12 00:47:31;;;;;;;;;;;22.20;51.90;;;;;;5076741;28;983;-31
2021/12/12 00:49:57;;;;;;;;;;;22.20;51.90;;;;;;5076405;28;979;-30
2021/12/12 00:52:24;;;;;;;;;;;22.30;51.90;;;;;;5077098;28;952;-31
2021/12/12 00:54:52;;;;;;;;;;;22.30;51.70;;;;;;5076035;28;1058;-30
2021/12/12 00:57:21;;;;;;;;;;;22.40;51.60;;;;;;5077027;28;1901;-31
2021/12/12 00:59:49;;;;;;;;;;;22.40;51.60;;;;;;5076772;28;948;-30
2021/12/12 01:02:17;;;;;;;;;;;22.30;51.60;;;;;;5075772;28;979;-32
2021/12/12 01:04:45;;;;;;;;;;;22.40;51.60;;;;;;5075195;28;1014;-31
2021/12/12 01:07:14;;;;;;;;;;;22.30;51.70;;;;;;5076228;28;991;-33
2021/12/12 01:09:44;;;;;;;;;;;22.30;51.70;;;;;;5074475;28;916;-30
2021/12/12 01:12:12;;;;;;;;;;;22.40;51.70;;;;;;5075964;28;1015;-30
2021/12/12 01:14:42;;;;;;;;;;;22.40;51.50;;;;;;5074964;27;1839;-31
2021/12/12 01:17:10;;;;;;;;;;;22.40;51.60;;;;;;5075616;28;1905;-31
2021/12/12 01:19:39;;;;;;;;;;;22.30;51.80;;;;;;5074942;28;1015;-32
2021/12/12 01:22:09;;;;;;;;;;;22.20;51.90;;;;;;5075464;28;1135;-30
2021/12/12 01:24:38;;;;;;;;;;;22.20;52.10;;;;;;5074985;28;1128;-30
2021/12/12 01:27:05;;;;;;;;;;;22.30;51.70;;;;;;5075567;28;952;-30
2021/12/12 01:29:32;;;;;;;;;;;22.50;51.20;;;;;;5075228;28;1008;-30
2021/12/12 01:32:03;;;;;;;;;;;22.70;50.90;;;;;;5075224;28;1317;-31
2021/12/12 01:34:31;;;;;;;;;;;22.80;50.50;;;;;;5075241;28;935;-31
2021/12/12 01:37:10;;;;;;;;;;;23.00;50.00;;;;;;5075036;28;1906;-30
2021/12/12 01:39:38;;;;;;;;;;;23.30;49.60;;;;;;5074811;28;940;-30
2021/12/12 01:42:07;;;;;;;;;;;23.50;49.00;;;;;;5074749;28;1033;-30
2021/12/12 01:44:43;;;;;;;;;;;23.70;48.60;;;;;;5074451;28;944;-30
2021/12/12 01:47:13;;;;;;;;;;;23.80;48.20;;;;;;5074560;28;1051;-30
2021/12/12 01:49:42;;;;;;;;;;;24.00;47.90;;;;;;5074510;28;1004;-30
2021/12/12 01:52:10;;;;;;;;;;;24.10;47.50;;;;;;5074738;28;1382;-31
2021/12/12 01:54:43;;;;;;;;;;;24.30;47.20;;;;;;5074412;28;936;-31
2021/12/12 01:57:11;;;;;;;;;;;24.40;47.10;;;;;;5074885;28;1915;-30
2021/12/12 01:59:38;;;;;;;;;;;24.30;46.90;;;;;;5074542;28;992;-29
2021/12/12 02:02:07;;;;;;;;;;;24.30;46.90;;;;;;5074854;28;979;-31
2021/12/12 02:04:36;;;;;;;;;;;24.30;47.00;;;;;;5074268;28;920;-30
2021/12/12 02:07:04;;;;;;;;;;;24.40;46.90;;;;;;5073717;28;884;-30
2021/12/12 02:09:31;;;;;;;;;;;24.30;46.90;;;;;;5074180;28;1026;-31
2021/12/12 02:11:59;;;;;;;;;;;24.20;46.90;;;;;;5074394;28;961;-30
2021/12/12 02:14:27;;;;;;;;;;;24.20;47.10;;;;;;5074240;28;995;-30
2021/12/12 02:16:58;;;;;;;;;;;24.20;47.10;;;;;;5074115;28;1902;-31
2021/12/12 02:19:31;;;;;;;;;;;24.10;47.10;;;;;;5074405;28;996;-29
2021/12/12 02:22:06;;;;;;;;;;;24.00;47.40;;;;;;5074094;27;998;-31
2021/12/12 02:35:43;;;;;;;;;;;23.70;47.80;;;;;;5073788;28;996;-31
2021/12/12 02:38:10;;;;;;;;;;;23.70;47.90;;;;;;5074316;27;1925;-30
2021/12/12 02:40:42;;;;;;;;;;;23.70;48.10;;;;;;5074430;28;988;-31
2021/12/12 02:43:11;;;;;;;;;;;23.60;48.00;;;;;;5074826;27;1129;-31
2021/12/12 02:45:37;;;;;;;;;;;23.50;48.20;;;;;;5073996;28;948;-31
2021/12/12 02:48:07;;;;;;;;;;;23.50;48.20;;;;;;5074539;28;1375;-31
2021/12/12 02:50:35;;;;;;;;;;;23.50;48.50;;;;;;5074452;28;1011;-33
2021/12/12 02:53:03;;;;;;;;;;;23.40;48.40;;;;;;5074716;28;1027;-29
2021/12/12 02:55:33;;;;;;;;;;;23.40;48.50;;;;;;5074178;28;1015;-31
2021/12/12 02:58:02;;;;;;;;;;;23.30;48.60;;;;;;5074226;28;1910;-31
2021/12/12 03:00:31;;;;;;;;;;;23.30;48.70;;;;;;5074233;28;1010;-31
2021/12/12 03:02:59;;;;;;;;;;;23.20;48.90;;;;;;5073973;28;948;-30
2021/12/12 03:05:28;;;;;;;;;;;23.10;48.90;;;;;;5074157;28;947;-30
2021/12/12 03:07:54;;;;;;;;;;;23.10;49.10;;;;;;5074671;28;1004;-30
2021/12/12 03:10:23;;;;;;;;;;;23.00;49.20;;;;;;5075295;28;999;-31
2021/12/12 03:12:50;;;;;;;;;;;23.00;49.40;;;;;;5074647;28;1019;-30
2021/12/12 03:15:18;;;;;;;;;;;22.90;50.70;;;;;;5074307;28;1031;-30
2021/12/12 03:17:46;;;;;;;;;;;22.90;49.60;;;;;;5076247;28;1980;-30
2021/12/12 03:20:23;;;;;;;;;;;22.90;49.50;;;;;;5077373;28;1125;-30
2021/12/12 03:22:50;;;;;;;;;;;23.00;49.50;;;;;;5078016;28;1062;-30
2021/12/12 03:25:17;;;;;;;;;;;23.00;49.50;;;;;;5077796;28;980;-31
2021/12/12 03:27:44;;;;;;;;;;;23.00;49.60;;;;;;5078282;28;1012;-29
2021/12/12 03:30:11;;;;;;;;;;;23.00;49.70;;;;;;5077673;28;1109;-30
2021/12/12 03:32:39;;;;;;;;;;;23.00;49.80;;;;;;5078391;28;1015;-29
2021/12/12 03:38:09;;;;;;;;;;;22.90;49.90;;;;;;5077262;28;1902;-30
2021/12/12 03:40:37;;;;;;;;;;;22.90;49.90;;;;;;5077615;28;941;-31
2021/12/12 03:43:05;;;;;;;;;;;22.90;50.10;;;;;;5078247;28;912;-30
2021/12/12 03:45:32;;;;;;;;;;;22.90;50.20;;;;;;5077930;28;978;-30
2021/12/12 03:48:03;;;;;;;;;;;22.80;50.10;;;;;;5078087;28;933;-30
2021/12/12 03:50:31;;;;;;;;;;;22.80;50.20;;;;;;5077815;28;1003;-30
2021/12/12 03:52:59;;;;;;;;;;;22.80;50.30;;;;;;5077491;28;972;-30
2021/12/12 03:55:26;;;;;;;;;;;22.80;50.40;;;;;;5077806;28;999;-32
2021/12/12 03:57:53;;;;;;;;;;;22.70;50.40;;;;;;5077785;28;1890;-30
2021/12/12 04:00:24;;;;;;;;;;;22.70;50.50;;;;;;5077618;28;949;-29
2021/12/12 04:02:52;;;;;;;;;;;22.70;50.60;;;;;;5077415;28;940;-30
2021/12/12 04:05:20;;;;;;;;;;;22.60;50.60;;;;;;5077516;28;1381;-30
2021/12/12 04:07:47;;;;;;;;;;;22.60;50.70;;;;;;5077197;28;1004;-31
2021/12/12 04:10:16;;;;;;;;;;;22.60;50.70;;;;;;5076896;28;1012;-30
2021/12/12 04:12:43;;;;;;;;;;;22.50;50.80;;;;;;5077054;28;1007;-31
2021/12/12 04:15:10;;;;;;;;;;;22.50;50.90;;;;;;5077424;28;1015;-31
2021/12/12 04:17:38;;;;;;;;;;;22.50;51.00;;;;;;5077193;28;1977;-29
2021/12/12 04:20:07;;;;;;;;;;;22.50;50.90;;;;;;5077139;28;1016;-30
2021/12/12 04:22:35;;;;;;;;;;;22.40;51.10;;;;;;5076967;28;1148;-30
2021/12/12 04:25:02;;;;;;;;;;;22.40;52.20;;;;;;5077460;28;1011;-30
2021/12/12 04:27:29;;;;;;;;;;;22.40;51.10;;;;;;5077325;28;1031;-30
2021/12/12 04:29:56;;;;;;;;;;;22.40;51.20;;;;;;5076578;27;998;-30
2021/12/12 04:32:24;;;;;;;;;;;22.40;51.20;;;;;;5076929;28;1014;-31
2021/12/12 04:34:54;;;;;;;;;;;22.40;51.10;;;;;;5077896;28;964;-31
2021/12/12 04:37:22;;;;;;;;;;;22.40;51.30;;;;;;5077379;28;1973;-29
2021/12/12 04:39:53;;;;;;;;;;;22.40;51.30;;;;;;5077400;28;957;-31
2021/12/12 04:42:22;;;;;;;;;;;22.50;51.20;;;;;;5076984;28;940;-30
2021/12/12 04:44:50;;;;;;;;;;;22.50;51.10;;;;;;5076890;28;972;-30
2021/12/12 04:50:05;;;;;;;;;;;22.40;51.30;;;;;;5076897;28;744;-30
2021/12/12 04:52:34;;;;;;;;;;;22.30;51.40;;;;;;5077200;28;996;-31
2021/12/12 04:55:07;;;;;;;;;;;22.30;51.40;;;;;;5077104;28;932;-30
2021/12/12 04:57:36;;;;;;;;;;;22.30;51.30;;;;;;5077452;28;1976;-29
2021/12/12 05:00:05;;;;;;;;;;;22.30;51.40;;;;;;5076889;28;980;-31
2021/12/12 05:02:39;;;;;;;;;;;22.30;51.30;;;;;;5077109;28;1050;-31
2021/12/12 05:05:10;;;;;;;;;;;22.30;51.40;;;;;;5076733;28;999;-32
2021/12/12 05:07:42;;;;;;;;;;;22.30;51.30;;;;;;5076571;28;1403;-30
2021/12/12 05:10:11;;;;;;;;;;;22.30;51.30;;;;;;5076731;28;935;-30
2021/12/12 05:12:42;;;;;;;;;;;22.30;51.30;;;;;;5076987;28;947;-30
2021/12/12 05:15:11;;;;;;;;;;;22.30;51.50;;;;;;5076829;28;1006;-29
2021/12/12 05:17:40;;;;;;;;;;;22.20;51.40;;;;;;5076576;28;1906;-30
2021/12/12 05:20:08;;;;;;;;;;;22.20;51.40;;;;;;5076489;28;1038;-31
2021/12/12 05:22:37;;;;;;;;;;;22.20;51.30;;;;;;5076644;28;1008;-32
2021/12/12 05:25:05;;;;;;;;;;;22.20;51.40;;;;;;5076538;28;1003;-30
2021/12/12 05:27:34;;;;;;;;;;;22.20;51.40;;;;;;5076338;28;1027;-30
2021/12/12 05:30:04;;;;;;;;;;;22.20;51.50;;;;;;5076532;28;1006;-31
2021/12/12 05:32:32;;;;;;;;;;;22.10;51.40;;;;;;5076374;28;972;-30
2021/12/12 05:35:00;;;;;;;;;;;22.20;51.60;;;;;;5076263;28;936;-31
2021/12/12 05:37:27;;;;;;;;;;;22.10;51.40;;;;;;5076169;28;1031;-30
2021/12/12 05:39:54;;;;;;;;;;;22.10;51.40;;;;;;5075992;28;1902;-30
2021/12/12 05:42:21;;;;;;;;;;;22.10;51.40;;;;;;5075948;28;968;-31
2021/12/12 05:44:50;;;;;;;;;;;22.10;51.50;;;;;;5076441;28;972;-29
2021/12/12 05:47:17;;;;;;;;;;;22.10;51.40;;;;;;5075871;28;924;-29
2021/12/12 05:49:44;;;;;;;;;;;22.10;51.50;;;;;;5076222;28;999;-30
2021/12/12 05:52:12;;;;;;;;;;;22.10;51.50;;;;;;5075764;28;996;-29
2021/12/12 05:54:39;;;;;;;;;;;22.20;51.40;;;;;;5075897;28;1044;-30
2021/12/12 05:57:09;;;;;;;;;;;22.10;51.30;;;;;;5075570;28;912;-29
2021/12/12 05:59:36;;;;;;;;;;;22.10;51.30;;;;;;5075695;28;1902;-30
2021/12/12 06:02:06;;;;;;;;;;;22.10;51.30;;;;;;5076019;28;1099;-30
2021/12/12 06:04:33;;;;;;;;;;;22.10;51.30;;;;;;5075949;28;1575;-31
2021/12/12 06:07:02;;;;;;;;;;;22.20;51.30;;;;;;5075278;28;1015;-30
2021/12/12 06:09:30;;;;;;;;;;;22.10;51.30;;;;;;5075295;27;1030;-30
2021/12/12 06:11:58;;;;;;;;;;;22.20;51.40;;;;;;5075587;28;1007;-30
2021/12/12 06:14:25;;;;;;;;;;;22.20;51.40;;;;;;5076189;28;999;-30
2021/12/12 06:16:52;;;;;;;;;;;22.20;51.30;;;;;;5075794;28;935;-31
2021/12/12 06:19:22;;;;;;;;;;;22.20;51.40;;;;;;5075338;28;1902;-30
2021/12/12 06:21:51;;;;;;;;;;;22.20;51.30;;;;;;5075028;28;995;-30
2021/12/12 06:24:17;;;;;;;;;;;22.10;51.30;;;;;;5074958;28;984;-30
2021/12/12 06:26:44;;;;;;;;;;;22.10;51.30;;;;;;5074935;28;976;-30
2021/12/12 06:29:11;;;;;;;;;;;22.10;51.30;;;;;;5074825;28;1077;-30
2021/12/12 06:31:41;;;;;;;;;;;22.20;51.40;;;;;;5074741;28;945;-30
2021/12/12 06:34:09;;;;;;;;;;;22.10;51.30;;;;;;5074820;28;995;-30
2021/12/12 06:36:38;;;;;;;;;;;22.10;51.30;;;;;;5074118;28;1031;-30
2021/12/12 06:39:06;;;;;;;;;;;22.10;51.40;;;;;;5074557;28;1906;-30
2021/12/12 06:41:33;;;;;;;;;;;22.10;51.50;;;;;;5074195;28;1062;-31
2021/12/12 06:44:02;;;;;;;;;;;22.10;51.50;;;;;;5074540;28;1078;-30
2021/12/12 06:46:29;;;;;;;;;;;22.10;51.30;;;;;;5075001;28;960;-30
2021/12/12 06:48:57;;;;;;;;;;;22.10;51.40;;;;;;5074412;28;1232;-31
2021/12/12 06:51:24;;;;;;;;;;;22.10;51.50;;;;;;5074422;28;1007;-31
2021/12/12 06:53:53;;;;;;;;;;;22.10;51.40;;;;;;5078645;28;1034;-31
2021/12/12 06:56:22;;;;;;;;;;;22.10;51.50;;;;;;5077852;28;992;-30
2021/12/12 06:58:51;;;;;;;;;;;22.10;51.50;;;;;;5078419;28;1980;-29
2021/12/12 07:01:19;;;;;;;;;;;22.10;51.50;;;;;;5078025;28;968;-31
2021/12/12 07:03:46;;;;;;;;;;;22.10;51.40;;;;;;5077289;28;959;-31
2021/12/12 07:06:13;;;;;;;;;;;22.10;51.50;;;;;;5076896;28;992;-29
2021/12/12 07:08:40;;;;;;;;;;;22.10;51.50;;;;;;5077690;28;935;-30
2021/12/12 07:11:09;;;;;;;;;;;22.10;51.50;;;;;;5077271;28;911;-31
2021/12/12 07:13:36;;;;;;;;;;;22.10;51.60;;;;;;5076837;28;953;-30
2021/12/12 07:16:04;;;;;;;;;;;22.10;51.60;;;;;;5076793;28;943;-31
2021/12/12 07:18:32;;;;;;;;;;;22.00;51.50;;;;;;5076767;28;1977;-30
2021/12/12 07:21:00;;;;;;;;;;;22.00;51.60;;;;;;5076336;28;1849;-30
2021/12/12 07:23:27;;;;;;;;;;;22.00;51.50;;;;;;5076033;28;1164;-30
2021/12/12 07:25:54;;;;;;;;;;;22.00;51.50;;;;;;5076405;28;900;-31
2021/12/12 07:28:22;;;;;;;;;;;22.00;51.50;;;;;;5077139;28;1013;-30
2021/12/12 07:30:49;;;;;;;;;;;22.00;51.40;;;;;;5075908;28;1091;-30
2021/12/12 07:33:16;;;;;;;;;;;22.10;51.50;;;;;;5076134;28;1019;-30
2021/12/12 07:35:43;;;;;;;;;;;22.10;51.40;;;;;;5076778;28;949;-30
2021/12/12 07:38:11;;;;;;;;;;;22.10;51.50;;;;;;5076356;28;1000;-31
2021/12/12 07:40:38;;;;;;;;;;;22.10;52.50;;;;;;5077193;28;1902;-31
2021/12/12 07:43:06;;;;;;;;;;;22.10;51.50;;;;;;5076930;28;999;-30
2021/12/12 07:45:34;;;;;;;;;;;22.10;51.30;;;;;;5077480;28;1023;-31
2021/12/12 07:48:01;;;;;;;;;;;22.10;51.50;;;;;;5076795;28;979;-31
2021/12/12 07:50:28;;;;;;;;;;;22.10;51.30;;;;;;5076525;28;1070;-30
2021/12/12 07:52:56;;;;;;;;;;;22.10;51.30;;;;;;5076806;28;1074;-30
2021/12/12 07:55:23;;;;;;;;;;;22.10;51.40;;;;;;5076186;28;976;-30
2021/12/12 07:57:51;;;;;;;;;;;22.10;51.30;;;;;;5076112;28;1017;-31
2021/12/12 08:00:19;;;;;;;;;;;22.10;51.40;;;;;;5076290;28;1968;-31
2021/12/12 08:02:48;;;;;;;;;;;22.10;51.40;;;;;;5075281;28;1012;-30
2021/12/12 08:05:16;;;;;;;;;;;22.10;51.30;;;;;;5075148;28;1004;-31
2021/12/12 08:07:43;;;;;;;;;;;22.10;51.30;;;;;;5076399;28;1016;-30
2021/12/12 08:10:11;;;;;;;;;;;22.10;51.30;;;;;;5076667;28;936;-30
2021/12/12 08:12:39;;;;;;;;;;;22.00;51.30;;;;;;5076739;28;1003;-31
2021/12/12 08:15:07;;;;;;;;;;;22.10;51.40;;;;;;5076580;28;933;-31
2021/12/12 08:17:34;;;;;;;;;;;22.00;51.40;;;;;;5075382;28;1001;-31
2021/12/12 08:20:04;;;;;;;;;;;22.00;51.40;;;;;;5076161;28;1894;-31
2021/12/12 08:22:31;;;;;;;;;;;22.00;51.40;;;;;;5074750;28;1248;-31
2021/12/12 08:24:58;;;;;;;;;;;22.10;51.40;;;;;;5074125;28;988;-31
2021/12/12 08:27:25;;;;;;;;;;;22.10;51.40;;;;;;5075365;28;945;-30
2021/12/12 08:29:53;;;;;;;;;;;22.10;51.40;;;;;;5075226;28;941;-30
2021/12/12 08:32:19;;;;;;;;;;;22.10;51.40;;;;;;5075064;28;1008;-30
2021/12/12 08:34:46;;;;;;;;;;;22.10;51.40;;;;;;5076152;28;1011;-30
2021/12/12 08:37:15;;;;;;;;;;;22.10;51.40;;;;;;5076044;27;1018;-29
2021/12/12 08:39:42;;;;;;;;;;;22.10;51.40;;;;;;5074952;28;1898;-30
2021/12/12 08:42:09;;;;;;;;;;;22.10;51.40;;;;;;5075252;28;996;-31
2021/12/12 08:44:36;;;;;;;;;;;22.10;51.40;;;;;;5074466;28;964;-30
2021/12/12 08:47:04;;;;;;;;;;;22.10;51.40;;;;;;5075345;28;1093;-30
2021/12/12 08:49:32;;;;;;;;;;;22.10;51.30;;;;;;5074809;27;983;-30
2021/12/12 08:52:05;;;;;;;;;;;22.20;51.30;;;;;;5075951;28;931;-31
2021/12/12 08:54:34;;;;;;;;;;;22.30;51.20;;;;;;5074859;28;925;-30
2021/12/12 08:57:05;;;;;;;;;;;22.30;51.20;;;;;;5074985;28;896;-30
2021/12/12 08:59:33;;;;;;;;;;;22.40;51.00;;;;;;5075313;28;1973;-31
2021/12/12 09:02:05;;;;;;;;;;;22.30;51.00;;;;;;5076039;28;1006;-30
2021/12/12 09:04:33;;;;;;;;;;;22.30;51.10;;;;;;5076416;28;995;-30
2021/12/12 09:07:02;;;;;;;;;;;22.40;51.00;;;;;;5075971;28;916;-30
2021/12/12 09:09:30;;;;;;;;;;;22.40;50.90;;;;;;5075715;28;977;-30
2021/12/12 09:12:02;;;;;;;;;;;22.50;50.80;;;;;;5075136;28;999;-32
2021/12/12 09:14:32;;;;;;;;;;;22.50;50.80;;;;;;5075281;28;1000;-30
2021/12/12 09:17:02;;;;;;;;;;;22.40;50.70;;;;;;5075703;28;833;-30
2021/12/12 09:19:30;;;;;;;;;;;22.40;51.00;;;;;;5074400;27;1952;-31
2021/12/12 09:21:59;;;;;;;;;;;22.40;51.20;;;;;;5074918;28;1164;-31
2021/12/12 09:24:43;;;;;;;;;;;22.30;51.20;;;;;;5075202;28;1383;-29
2021/12/12 09:27:14;;;;;;;;;;;22.30;51.30;;;;;;5072799;28;1700;-29
2021/12/12 09:29:42;;;;;;;;;;;22.30;51.30;;;;;;5075897;27;962;-30
2021/12/12 09:32:11;;;;;;;;;;;22.30;51.30;;;;;;5075560;27;975;-30
2021/12/12 09:34:41;;;;;;;;;;;22.30;51.30;;;;;;5075712;28;1098;-30
2021/12/12 09:37:10;;;;;;;;;;;22.20;51.40;;;;;;5075350;27;967;-30
2021/12/12 09:39:39;;;;;;;;;;;22.30;51.50;;;;;;5074033;28;1977;-30
2021/12/12 09:42:20;;;;;;;;;;;22.20;51.40;;;;;;5075085;27;991;-31
2021/12/12 09:44:59;;;;;;;;;;;22.20;51.50;;;;;;5075299;27;1085;-29
2021/12/12 09:47:46;;;;;;;;;;;22.30;51.60;;;;;;5067419;27;1853;-29
2021/12/12 09:53:23;;;;;;;;;;;22.30;51.40;;;;;;5074132;28;887;-31
2021/12/12 09:55:53;;;;;;;;;;;22.30;51.40;;;;;;5074892;28;1117;-30
2021/12/12 09:58:24;;;;;;;;;;;22.20;51.40;;;;;;5074720;28;1026;-31
2021/12/12 10:00:57;;;;;;;;;;;22.20;51.50;;;;;;5075319;28;1902;-30
2021/12/12 10:03:28;;;;;;;;;;;22.20;51.40;;;;;;5074803;28;956;-30
2021/12/12 10:06:01;;;;;;;;;;;22.20;51.40;;;;;;5073719;28;1082;-31
2021/12/12 10:08:41;;;;;;;;;;;22.30;51.40;;;;;;5073176;28;1058;-30
2021/12/12 10:11:10;;;;;;;;;;;22.40;51.10;;;;;;5072572;28;924;-31
2021/12/12 10:13:41;;;;;;;;;;;22.40;51.10;;;;;;5073448;27;994;-31
2021/12/12 10:16:13;;;;;;;;;;;22.40;51.10;;;;;;5073090;28;1004;-31
2021/12/12 10:18:51;;;;;;;;;;;22.40;51.10;;;;;;5071599;28;1003;-30
2021/12/12 10:21:20;;;;;;;;;;;22.30;51.10;;;;;;5072591;28;1910;-41
2021/12/12 10:23:52;;;;;;;;;;;22.20;51.20;;;;;;5072203;27;1140;-32
2021/12/12 10:26:22;;;;;;;;;;;22.20;51.50;;;;;;5071650;28;1089;-31
2021/12/12 10:28:52;;;;;;;;;;;22.20;51.50;;;;;;5072584;28;1585;-30
2021/12/12 10:31:22;;;;;;;;;;;22.20;51.40;;;;;;5072067;28;980;-31
2021/12/12 10:33:50;;;;;;;;;;;22.20;51.40;;;;;;5072520;28;1016;-30
2021/12/12 10:36:19;;;;;;;;;;;22.20;51.30;;;;;;5072840;28;1003;-30
2021/12/12 10:38:51;;;;;;;;;;;22.10;51.30;;;;;;5073164;28;987;-30
2021/12/12 10:41:22;;;;;;;;;;;22.20;51.40;;;;;;5071582;28;1910;-33
2021/12/12 10:43:53;;;;;;;;;;;22.10;51.40;;;;;;5072487;28;1861;-29
2021/12/12 10:46:21;;;;;;;;;;;22.10;51.30;;;;;;5072596;28;939;-31
2021/12/12 10:48:56;;;;;;;;;;;22.10;51.40;;;;;;5073174;27;1362;-32
2021/12/12 10:51:24;;;;;;;;;;;22.10;51.30;;;;;;5072043;28;955;-31
2021/12/12 10:53:55;;;;;;;;;;;22.10;51.30;;;;;;5072226;28;999;-31
2021/12/12 10:56:27;;;;;;;;;;;22.10;51.40;;;;;;5072734;28;1043;-30
2021/12/12 10:58:58;;;;;;;;;;;22.20;51.30;;;;;;5071868;28;1203;-31
2021/12/12 11:01:26;;;;;;;;;;;22.10;51.30;;;;;;5072013;28;1897;-30
2021/12/12 11:03:54;;;;;;;;;;;22.20;51.40;;;;;;5071555;28;911;-31
2021/12/12 11:06:24;;;;;;;;;;;22.20;51.40;;;;;;5071531;28;983;-30
2021/12/12 11:08:53;;;;;;;;;;;22.20;51.30;;;;;;5066624;28;1855;-30
2021/12/12 11:11:21;;;;;;;;;;;22.20;51.40;;;;;;5065012;27;944;-33
2021/12/12 11:13:50;;;;;;;;;;;22.10;51.30;;;;;;5055374;28;1143;-30
2021/12/12 11:16:21;;;;;;;;;;;22.20;51.30;;;;;;5052724;27;943;-32
2021/12/12 11:18:49;;;;;;;;;;;22.20;51.40;;;;;;5057010;27;1081;-32
2021/12/12 11:21:19;;;;;;;;;;;22.20;51.40;;;;;;5072159;28;1901;-31
2021/12/12 11:23:50;;;;;;;;;;;22.20;51.30;;;;;;5071932;28;2009;-32
2021/12/12 11:26:18;;;;;;;;;;;22.10;51.40;;;;;;5071850;28;1034;-30
2021/12/12 11:28:47;;;;;;;;;;;22.10;51.40;;;;;;5072243;28;1007;-30
2021/12/12 11:31:16;;;;;;;;;;;22.20;51.40;;;;;;5071821;28;1076;-31
2021/12/12 11:33:51;;;;;;;;;;;22.10;51.30;;;;;;5071506;28;1125;-29
2021/12/12 11:36:21;;;;;;;;;;;22.10;51.40;;;;;;5072314;28;1138;-30
2021/12/12 11:38:49;;;;;;;;;;;22.10;51.40;;;;;;5074915;28;1412;-32
2021/12/12 11:41:17;;;;;;;;;;;22.10;51.40;;;;;;5075841;28;1897;-31
2021/12/12 11:43:49;;;;;;;;;;;22.10;51.40;;;;;;5075060;28;1467;-32
2021/12/12 11:46:20;;;;;;;;;;;22.20;51.40;;;;;;5074753;28;1015;-31
2021/12/12 11:48:50;;;;;;;;;;;22.20;51.30;;;;;;5075414;28;1694;-30
2021/12/12 11:51:19;;;;;;;;;;;22.20;51.40;;;;;;5075470;28;1133;-31
2021/12/12 11:53:47;;;;;;;;;;;22.20;51.30;;;;;;5074934;28;1094;-31
2021/12/12 11:56:16;;;;;;;;;;;22.20;51.30;;;;;;5074961;28;976;-31
2021/12/12 11:58:45;;;;;;;;;;;22.10;51.30;;;;;;5074654;28;1015;-30
2021/12/12 12:01:18;;;;;;;;;;;22.10;51.30;;;;;;5074626;28;1902;-31
2021/12/12 12:03:59;;;;;;;;;;;22.10;51.40;;;;;;5074936;28;1080;-29
2021/12/12 12:06:32;;;;;;;;;;;22.10;51.20;;;;;;5074275;28;1324;-30
2021/12/12 12:09:09;;;;;;;;;;;22.10;51.40;;;;;;5073779;28;1007;-31
2021/12/12 12:11:45;;;;;;;;;;;22.10;51.40;;;;;;5073784;28;1015;-31
2021/12/12 12:14:18;;;;;;;;;;;22.10;51.30;;;;;;5074365;28;1030;-32
2021/12/12 12:16:49;;;;;;;;;;;22.10;51.30;;;;;;5074346;28;956;-29
2021/12/12 12:19:26;;;;;;;;;;;22.10;51.30;;;;;;5073582;28;988;-30
2021/12/12 12:22:02;;;;;;;;;;;22.10;51.30;;;;;;5074386;28;1990;-30
2021/12/12 12:24:39;;;;;;;;;;;22.10;51.40;;;;;;5074784;28;975;-30
2021/12/12 12:27:08;;;;;;;;;;;22.10;51.30;;;;;;5074652;27;1050;-29
2021/12/12 12:29:49;;;;;;;;;;;22.10;51.30;;;;;;5074445;28;998;-30
2021/12/12 12:32:56;;;;;;;;;;;22.10;51.30;;;;;;5074078;28;943;-30
2021/12/12 12:35:42;;;;;;;;;;;22.00;51.40;;;;;;5073961;28;1457;-31
2021/12/12 12:38:32;;;;;;;;;;;22.10;51.30;;;;;;5074090;28;962;-33
2021/12/12 12:41:18;;;;;;;;;;;22.10;52.20;;;;;;5074367;28;1910;-32
2021/12/12 12:44:11;;;;;;;;;;;22.30;51.20;;;;;;5074091;28;974;-31
2021/12/12 12:46:56;;;;;;;;;;;22.30;50.90;;;;;;5073968;27;1879;-31
2021/12/12 12:49:53;;;;;;;;;;;22.40;51.10;;;;;;5073093;28;1078;-30
2021/12/12 12:52:29;;;;;;;;;;;22.60;51.00;;;;;;5073962;28;1112;-30
2021/12/12 12:55:11;;;;;;;;;;;22.70;51.00;;;;;;5074318;27;1413;-32
2021/12/12 12:57:39;;;;;;;;;;;22.80;51.00;;;;;;5076978;27;1157;-32
2021/12/12 13:00:09;;;;;;;;;;;23.00;50.90;;;;;;5074018;28;1984;-32
2021/12/12 13:02:58;;;;;;;;;;;23.00;50.80;;;;;;5074166;28;1000;-33
2021/12/12 13:05:48;;;;;;;;;;;23.00;50.80;;;;;;5074217;28;941;-32
2021/12/12 13:08:45;;;;;;;;;;;23.10;50.60;;;;;;5075123;28;955;-33
2021/12/12 13:11:15;;;;;;;;;;;23.10;50.20;;;;;;5075456;28;1015;-32
2021/12/12 13:13:46;;;;;;;;;;;23.20;50.20;;;;;;5074113;27;1211;-32
2021/12/12 13:16:16;;;;;;;;;;;23.20;50.00;;;;;;5074286;28;983;-34
2021/12/12 13:18:48;;;;;;;;;;;23.20;50.00;;;;;;5072632;28;1012;-32
2021/12/12 13:21:26;;;;;;;;;;;23.20;50.20;;;;;;5072912;28;1910;-33
2021/12/12 13:24:00;;;;;;;;;;;23.10;50.20;;;;;;5073686;28;1250;-31
2021/12/12 13:26:31;;;;;;;;;;;23.10;50.20;;;;;;5074390;28;976;-33
2021/12/12 13:29:06;;;;;;;;;;;23.10;50.30;;;;;;5073565;28;928;-34
2021/12/12 13:31:39;;;;;;;;;;;23.00;50.10;;;;;;5074335;28;972;-32
2021/12/12 13:34:12;;;;;;;;;;;23.10;50.70;;;;;;5075657;27;1003;-33
2021/12/12 13:36:49;;;;;;;;;;;23.10;50.90;;;;;;5073454;28;1000;-32
2021/12/12 13:39:23;;;;;;;;;;;23.10;50.60;;;;;;5072682;28;936;-32
2021/12/12 13:41:56;;;;;;;;;;;23.10;50.70;;;;;;5073802;28;1894;-32
2021/12/12 13:44:41;;;;;;;;;;;23.00;50.50;;;;;;5073274;28;988;-31
2021/12/12 13:47:13;;;;;;;;;;;22.90;50.80;;;;;;5073370;27;1713;-30
2021/12/12 13:49:44;;;;;;;;;;;22.90;50.70;;;;;;5073543;28;1003;-32
2021/12/12 13:52:16;;;;;;;;;;;23.00;50.90;;;;;;5072460;28;1052;-30
2021/12/12 13:54:46;;;;;;;;;;;22.90;50.70;;;;;;5072569;28;1179;-32
2021/12/12 13:57:16;;;;;;;;;;;22.90;50.90;;;;;;5072315;28;1046;-30
2021/12/12 13:59:51;;;;;;;;;;;22.90;50.60;;;;;;5071472;28;1304;-32
2021/12/12 14:02:18;;;;;;;;;;;22.90;51.10;;;;;;5070974;28;1902;-32
2021/12/12 14:04:50;;;;;;;;;;;22.90;50.80;;;;;;5072701;28;1189;-30
2021/12/12 14:07:17;;;;;;;;;;;23.00;50.90;;;;;;5071918;28;1401;-30
2021/12/12 14:09:45;;;;;;;;;;;22.80;51.00;;;;;;5069297;28;1851;-31
2021/12/12 14:12:12;;;;;;;;;;;22.80;51.10;;;;;;5070668;27;1037;-31
2021/12/12 14:14:47;;;;;;;;;;;22.80;51.10;;;;;;5073233;28;1017;-30
2021/12/12 14:17:20;;;;;;;;;;;22.80;51.20;;;;;;5073609;27;975;-31
2021/12/12 14:19:48;;;;;;;;;;;22.70;51.00;;;;;;5073196;28;1015;-30
2021/12/12 14:22:17;;;;;;;;;;;22.70;51.00;;;;;;5072777;28;1906;-30
2021/12/12 14:24:44;;;;;;;;;;;22.60;51.20;;;;;;5072878;28;1657;-30
2021/12/12 14:27:12;;;;;;;;;;;22.60;51.60;;;;;;5073271;28;1059;-30
2021/12/12 14:29:43;;;;;;;;;;;22.60;51.40;;;;;;5072289;28;940;-29
2021/12/12 14:32:13;;;;;;;;;;;22.60;51.50;;;;;;5071306;28;2061;-31
2021/12/12 14:34:42;;;;;;;;;;;22.60;51.60;;;;;;5071344;28;1309;-31
2021/12/12 14:37:11;;;;;;;;;;;22.60;51.50;;;;;;5071776;28;1007;-31
2021/12/12 14:39:39;;;;;;;;;;;22.60;51.60;;;;;;5072596;28;956;-31
2021/12/12 14:42:07;;;;;;;;;;;22.60;51.60;;;;;;5072412;28;1914;-30
2021/12/12 14:44:36;;;;;;;;;;;22.60;51.60;;;;;;5072275;28;1011;-30
2021/12/12 14:47:06;;;;;;;;;;;22.50;51.70;;;;;;5072083;28;911;-30
2021/12/12 14:49:36;;;;;;;;;;;22.60;51.70;;;;;;5071712;28;980;-30
2021/12/12 14:52:05;;;;;;;;;;;22.60;51.70;;;;;;5070988;28;1861;-30
2021/12/12 14:54:35;;;;;;;;;;;22.60;51.80;;;;;;5072297;28;912;-30
2021/12/12 14:57:06;;;;;;;;;;;22.50;51.90;;;;;;5072043;28;932;-30
2021/12/12 14:59:33;;;;;;;;;;;22.60;52.10;;;;;;5070831;28;1389;-31
2021/12/12 15:02:02;;;;;;;;;;;22.60;52.00;;;;;;5072212;28;1906;-31
2021/12/12 15:04:31;;;;;;;;;;;22.70;51.90;;;;;;5071555;28;999;-30
2021/12/12 15:06:59;;;;;;;;;;;22.60;52.00;;;;;;5071470;28;1015;-30
2021/12/12 15:09:29;;;;;;;;;;;22.50;52.00;;;;;;5071649;28;980;-30
2021/12/12 15:11:58;;;;;;;;;;;22.60;52.10;;;;;;5071939;28;979;-30